Time;durP1;ratioP1;P1;durP2;ratioP2;P2;SDS_P1;SDS_P2;PMS_P1;PMS_P2;Temp;Humidity;BMP_temperature;BMP_pressure;BME280_temperature;BME280_humidity;BME280_pressure;Samples;Min_cycle;Max_cycle;Signal;HPM_P1;HPM_P2
2022/06/05 00:00:08;;;;;;;11.07;7.25;;;;;;;19.55;56.42;101599.22;5115039;28;20024;-72
2022/06/05 00:03:09;;;;;;;9.60;7.70;;;;;;;19.57;55.86;101605.31;5115107;28;20028;-72
2022/06/05 00:05:44;;;;;;;8.20;6.88;;;;;;;19.52;56.49;101596.72;5088388;28;20394;-72
2022/06/05 00:08:34;;;;;;;7.95;7.20;;;;;;;19.49;56.21;101597.75;5115016;28;20031;-72
2022/06/05 00:11:00;;;;;;;10.38;7.35;;;;;;;19.44;57.01;101588.31;5114770;28;20120;-71
2022/06/05 00:13:29;;;;;;;8.65;7.47;;;;;;;19.34;56.33;101561.47;5115264;28;20022;-71
2022/06/05 00:15:56;;;;;;;8.10;6.85;;;;;;;19.36;56.93;101573.69;5114809;28;20032;-72
2022/06/05 00:18:21;;;;;;;8.90;7.32;;;;;;;19.30;56.71;101565.19;5114255;28;20485;-72
2022/06/05 00:20:47;;;;;;;8.75;7.10;;;;;;;19.28;57.61;101572.34;5114627;28;20034;-72
2022/06/05 00:23:12;;;;;;;7.65;6.88;;;;;;;19.24;56.71;101571.63;5114812;28;20030;-72
2022/06/05 00:25:50;;;;;;;9.75;7.57;;;;;;;19.24;56.91;101578.72;5113650;28;20036;-71
2022/06/05 00:28:21;;;;;;;9.75;7.85;;;;;;;19.22;57.11;101576.13;5114808;28;20156;-72
2022/06/05 00:31:03;;;;;;;10.65;7.80;;;;;;;19.17;56.59;101567.56;5114396;28;20387;-72
2022/06/05 00:33:35;;;;;;;10.18;7.38;;;;;;;19.13;57.54;101566.03;5113807;28;20026;-72
2022/06/05 00:36:29;;;;;;;10.73;7.75;;;;;;;19.15;56.53;101558.84;5114762;28;20144;-72
2022/06/05 00:39:18;;;;;;;10.63;7.43;;;;;;;19.11;56.98;101546.72;5113596;28;20020;-72
2022/06/05 00:41:52;;;;;;;10.10;7.30;;;;;;;19.07;57.96;101551.31;5114046;28;20035;-72
2022/06/05 00:44:24;;;;;;;10.07;7.55;;;;;;;19.05;57.41;101553.16;5114453;28;20024;-72
2022/06/05 00:46:51;;;;;;;11.35;8.13;;;;;;;19.01;57.58;101548.94;5113581;28;20565;-71
2022/06/05 00:49:19;;;;;;;8.40;7.60;;;;;;;18.97;57.52;101555.31;5114365;28;20027;-72
2022/06/05 00:51:44;;;;;;;8.23;7.25;;;;;;;18.92;57.58;101544.94;5114042;28;20019;-72
2022/06/05 00:54:09;;;;;;;9.07;8.15;;;;;;;18.91;57.47;101543.25;5113356;28;20106;-71
2022/06/05 00:56:37;;;;;;;9.38;7.75;;;;;;;18.81;57.83;101541.97;5113719;28;20096;-72
2022/06/05 00:59:03;;;;;;;9.88;8.20;;;;;;;18.83;58.15;101549.81;5114304;28;20037;-72
2022/06/05 01:01:28;;;;;;;9.60;7.75;;;;;;;18.79;58.64;101548.25;5113448;28;20020;-72
2022/06/05 01:04:01;;;;;;;9.50;8.10;;;;;;;18.78;59.05;101552.69;5113955;28;20019;-72
2022/06/05 01:06:26;;;;;;;8.40;7.55;;;;;;;18.76;58.69;101553.66;5113352;28;20047;-72
2022/06/05 01:08:52;;;;;;;8.40;7.55;;;;;;;18.77;58.96;101550.97;5113589;28;20415;-72
2022/06/05 01:11:27;;;;;;;8.43;7.57;;;;;;;18.74;58.56;101544.94;5113358;28;20493;-72
2022/06/05 01:14:13;;;;;;;10.20;7.75;;;;;;;18.79;58.40;101554.38;5112832;28;20491;-72
2022/06/05 01:16:57;;;;;;;9.57;7.90;;;;;;;18.76;58.26;101562.44;5113555;28;20364;-72
2022/06/05 01:19:47;;;;;;;8.60;7.75;;;;;;;18.76;58.57;101611.78;5113878;28;20031;-72
2022/06/05 01:22:27;;;;;;;9.82;7.13;;;;;;;18.77;58.91;101643.41;5113051;28;20062;-71
2022/06/05 01:25:07;;;;;;;8.98;7.13;;;;;;;18.77;59.38;101589.72;5113331;28;20479;-72
2022/06/05 01:27:36;;;;;;;9.25;7.25;;;;;;;18.74;59.71;101609.22;5112376;28;20119;-72
2022/06/05 01:30:22;;;;;;;7.43;6.65;;;;;;;18.77;59.24;101631.97;5113847;28;20030;-72
2022/06/05 01:32:57;;;;;;;8.43;6.88;;;;;;;18.62;62.75;101612.38;5113492;28;20032;-72
2022/06/05 01:35:48;;;;;;;9.57;7.65;;;;;;;18.46;61.56;101544.41;5112916;28;20028;-72
2022/06/05 01:38:19;;;;;;;8.68;7.80;;;;;;;18.37;64.45;101562.44;5113785;28;20028;-72
2022/06/05 01:40:51;;;;;;;8.20;7.40;;;;;;;18.38;64.48;101596.69;5113361;28;20098;-72
2022/06/05 01:43:20;;;;;;;8.38;7.60;;;;;;;18.38;65.55;101588.78;5112723;28;20535;-72
2022/06/05 01:45:54;;;;;;;8.88;7.53;;;;;;;18.42;65.96;101577.16;5113189;28;20472;-72
2022/06/05 01:48:26;;;;;;;;;;;;;;;18.50;61.61;101560.97;5113969;28;20069;-72
2022/06/05 01:50:56;;;;;;;8.70;7.75;;;;;;;18.56;64.66;101554.56;5112505;28;19938;-72
2022/06/05 01:53:29;;;;;;;10.20;7.80;;;;;;;18.58;63.63;101560.63;5113224;28;20028;-72
2022/06/05 01:56:00;;;;;;;9.13;8.02;;;;;;;18.60;63.89;101554.34;5112042;28;20062;-72
2022/06/05 01:58:36;;;;;;;10.65;8.00;;;;;;;18.65;63.12;101538.28;5113339;28;20020;-72
2022/06/05 02:01:08;;;;;;;10.07;7.85;;;;;;;18.67;63.35;101528.50;5113108;28;20126;-72
2022/06/05 02:03:39;;;;;;;8.93;8.00;;;;;;;18.66;61.82;101517.06;5112348;28;20024;-72
2022/06/05 02:06:19;;;;;;;11.20;7.80;;;;;;;18.66;61.86;101530.28;5113682;28;20024;-72
2022/06/05 02:08:49;;;;;;;10.05;8.10;;;;;;;18.58;63.64;101516.59;5112908;28;20032;-72
2022/06/05 02:11:23;;;;;;;10.27;7.70;;;;;;;18.47;64.38;101503.91;5112312;28;20028;-72
2022/06/05 02:13:53;;;;;;;9.07;8.00;;;;;;;18.31;65.50;101489.69;5112988;28;20425;-72
2022/06/05 02:16:19;;;;;;;10.75;8.18;;;;;;;18.13;65.30;101479.94;5113168;28;20104;-72
2022/06/05 02:18:45;;;;;;;10.52;8.57;;;;;;;18.12;67.00;101472.97;5112046;28;20482;-72
2022/06/05 02:21:10;;;;;;;9.75;8.20;;;;;;;18.14;66.48;101466.66;5113434;28;20028;-71
2022/06/05 02:23:38;;;;;;;10.63;8.10;;;;;;;18.13;66.32;101459.69;5115736;28;20027;-72
2022/06/05 02:26:06;;;;;;;10.43;8.80;;;;;;;18.13;65.74;101450.91;5116190;28;20506;-72
2022/06/05 02:28:32;;;;;;;9.25;8.25;;;;;;;18.15;65.41;101444.66;5116876;28;20031;-72
2022/06/05 02:31:11;;;;;;;9.68;8.68;;;;;;;18.15;65.19;101435.88;5116343;28;20428;-72
2022/06/05 02:34:10;;;;;;;11.07;8.88;;;;;;;17.85;66.74;101423.13;5116868;28;20044;-72
2022/06/05 02:37:03;;;;;;;10.75;9.48;;;;;;;17.35;68.64;101430.56;5116903;28;20028;-72
2022/06/05 02:40:01;;;;;;;11.38;10.10;;;;;;;16.93;71.97;101432.28;5116269;28;20020;-72
2022/06/05 02:42:47;;;;;;;11.55;9.80;;;;;;;16.83;72.02;101420.41;5116814;28;20035;-72
2022/06/05 02:45:23;;;;;;;11.32;10.10;;;;;;;16.82;73.85;101400.28;5116139;28;20039;-72
2022/06/05 02:47:57;;;;;;;12.15;9.43;;;;;;;16.78;72.58;101396.06;5116558;28;20032;-72
2022/06/05 02:50:47;;;;;;;10.68;9.57;;;;;;;16.76;72.00;101388.22;5116772;28;20114;-72
2022/06/05 02:53:13;;;;;;;10.60;9.50;;;;;;;16.71;73.76;101378.75;5115613;28;20035;-72
2022/06/05 02:55:39;;;;;;;11.38;9.32;;;;;;;16.65;73.03;101373.75;5116305;28;20039;-72
2022/06/05 02:58:06;;;;;;;14.10;9.45;;;;;;;16.68;73.83;101378.91;5116686;28;20047;-72
2022/06/05 03:00:34;;;;;;;14.13;9.43;;;;;;;16.74;72.17;101382.13;5115454;28;20096;-72
2022/06/05 03:05:45;;;;;;;10.07;8.95;;;;;;;16.81;70.40;101366.97;5116386;28;20046;-72
2022/06/05 03:08:14;;;;;;;9.68;8.68;;;;;;;16.83;69.70;101380.91;5115387;28;20024;-72
2022/06/05 03:10:41;;;;;;;10.98;8.50;;;;;;;16.82;70.63;101372.16;5116072;28;20016;-71
2022/06/05 03:13:07;;;;;;;8.80;7.90;;;;;;;16.89;70.07;101367.50;5115696;28;20387;-71
2022/06/05 03:15:32;;;;;;;9.95;8.63;;;;;;;16.89;69.91;101366.66;5115967;28;20016;-72
2022/06/05 03:17:58;;;;;;;10.63;9.00;;;;;;;16.94;68.10;101362.03;5116095;28;20020;-72
2022/06/05 03:20:24;;;;;;;9.25;8.32;;;;;;;16.87;67.83;101371.97;5115450;28;20111;-72
2022/06/05 03:22:49;;;;;;;15.02;8.27;;;;;;;16.83;69.37;101375.66;5116032;28;20471;-71
2022/06/05 03:25:18;;;;;;;10.82;7.97;;;;;;;16.87;68.90;101392.19;5116141;28;20520;-72
2022/06/05 03:27:44;;;;;;;9.60;8.10;;;;;;;16.92;69.83;101388.44;5114844;27;20066;-72
2022/06/05 03:30:11;;;;;;;11.57;7.88;;;;;;;16.87;69.02;101386.91;5115963;28;20028;-72
2022/06/05 03:32:36;;;;;;;11.20;8.20;;;;;;;16.90;69.51;101392.91;5115560;27;20043;-72
2022/06/05 03:35:02;;;;;;;11.32;9.10;;;;;;;16.97;69.01;101397.03;5114337;28;20477;-72
2022/06/05 03:37:27;;;;;;;9.45;8.25;;;;;;;16.96;69.42;101390.03;5116038;28;20028;-72
2022/06/05 03:39:53;;;;;;;10.82;8.30;;;;;;;16.95;69.09;101392.72;5115473;28;20046;-72
2022/06/05 03:42:19;;;;;;;11.20;8.45;;;;;;;16.96;70.40;101397.06;5114817;28;20110;-72
2022/06/05 03:44:44;;;;;;;10.50;8.68;;;;;;;16.89;69.79;101391.19;5114810;28;20123;-72
2022/06/05 03:47:10;;;;;;;12.23;8.25;;;;;;;16.98;69.30;101392.59;5115541;28;20019;-72
2022/06/05 03:49:36;;;;;;;11.35;8.35;;;;;;;16.86;68.38;101388.69;5114376;28;20482;-71
2022/06/05 03:52:04;;;;;;;10.90;8.98;;;;;;;16.85;68.26;101387.84;5115660;28;20032;-72
2022/06/05 03:54:29;;;;;;;11.60;8.63;;;;;;;16.86;68.33;101388.69;5115287;28;20031;-72
2022/06/05 03:56:54;;;;;;;11.77;8.95;;;;;;;16.93;68.96;101398.03;5114187;28;20039;-71
2022/06/05 03:59:20;;;;;;;11.80;8.30;;;;;;;16.97;67.60;101401.41;5115552;28;20425;-71
2022/06/05 04:01:45;;;;;;;11.95;9.02;;;;;;;16.94;67.25;101399.78;5115024;28;20076;-72
2022/06/05 04:04:10;;;;;;;11.57;7.97;;;;;;;16.97;67.18;101396.13;5114594;28;20062;-72
2022/06/05 04:06:35;;;;;;;10.73;8.60;;;;;;;16.95;66.67;101392.72;5115094;28;20456;-72
2022/06/05 04:09:04;;;;;;;11.38;8.23;;;;;;;16.90;66.77;101390.28;5115243;28;20487;-72
2022/06/05 04:11:31;;;;;;;11.27;8.43;;;;;;;16.91;66.62;101392.00;5114464;28;20038;-71
2022/06/05 04:13:57;;;;;;;10.63;8.13;;;;;;;16.87;66.84;101386.91;5115098;28;20061;-72
2022/06/05 04:16:29;;;;;;;9.70;7.88;;;;;;;16.89;66.96;101375.41;5114136;28;20027;-72
2022/06/05 04:18:55;;;;;;;10.43;7.90;;;;;;;16.90;66.38;101374.47;5114929;28;20046;-72
2022/06/05 04:21:28;;;;;;;14.85;8.73;;;;;;;16.87;66.85;101374.59;5115085;28;20396;-72
2022/06/05 04:23:54;;;;;;;9.82;7.97;;;;;;;16.83;66.36;101375.66;5113776;28;20059;-72
2022/06/05 04:26:29;;;;;;;12.35;8.88;;;;;;;16.85;66.92;101384.34;5114818;28;20023;-72
2022/06/05 04:28:55;;;;;;;9.18;8.00;;;;;;;16.80;66.19;101370.50;5114472;28;20353;-72
2022/06/05 04:31:37;;;;;;;10.77;8.10;;;;;;;16.79;66.09;101368.81;5114042;28;20058;-71
2022/06/05 04:34:05;;;;;;;12.95;8.10;;;;;;;16.80;66.31;101359.97;5114837;28;20034;-71
2022/06/05 04:36:30;;;;;;;8.60;7.80;;;;;;;16.78;67.64;101372.38;5114419;28;20173;-72
2022/06/05 04:38:56;;;;;;;10.05;8.23;;;;;;;16.72;66.18;101370.78;5113848;28;20465;-71
2022/06/05 04:41:23;;;;;;;9.10;7.90;;;;;;;16.75;66.63;101375.97;5114461;28;20356;-72
2022/06/05 04:43:49;;;;;;;10.48;7.78;;;;;;;16.80;66.43;101375.78;5114192;28;20463;-72
2022/06/05 04:46:17;;;;;;;10.05;7.53;;;;;;;16.80;66.90;101370.50;5112826;28;20038;-72
2022/06/05 04:48:42;;;;;;;10.40;8.30;;;;;;;16.83;66.01;101362.47;5114067;28;20023;-72
2022/06/05 04:51:10;;;;;;;15.90;9.32;;;;;;;16.82;66.10;101368.69;5114480;28;20031;-72
2022/06/05 04:53:36;;;;;;;11.10;8.32;;;;;;;16.82;66.65;101368.69;5113237;28;20470;-71
2022/06/05 04:56:07;;;;;;;9.23;7.35;;;;;;;16.83;66.35;101367.75;5114122;28;20040;-72
2022/06/05 04:58:33;;;;;;;12.02;8.18;;;;;;;16.80;65.65;101379.25;5113142;28;20111;-72
2022/06/05 05:00:59;;;;;;;10.45;8.15;;;;;;;16.84;66.40;101374.75;5114275;28;20047;-71
2022/06/05 05:03:25;;;;;;;12.38;7.72;;;;;;;16.87;65.92;101373.75;5114251;28;20459;-71
2022/06/05 05:05:50;;;;;;;11.70;7.80;;;;;;;16.85;65.38;101376.44;5113049;28;20040;-71
2022/06/05 05:08:15;;;;;;;10.02;7.88;;;;;;;16.83;66.28;101373.00;5113933;28;20031;-72
2022/06/05 05:10:41;;;;;;;12.00;8.10;;;;;;;16.80;66.79;101376.63;5113645;28;20043;-71
2022/06/05 05:13:06;;;;;;;10.50;8.38;;;;;;;16.81;67.32;101381.00;5113105;28;20027;-71
2022/06/05 05:15:32;;;;;;;12.98;8.95;;;;;;;16.84;66.08;101370.34;5113538;28;20134;-72
2022/06/05 05:17:57;;;;;;;10.40;7.95;;;;;;;16.86;66.32;101378.16;5113876;28;20052;-71
2022/06/05 05:20:24;;;;;;;9.48;8.20;;;;;;;16.95;66.92;101376.94;5113235;28;20026;-71
2022/06/05 05:22:49;;;;;;;10.45;8.70;;;;;;;16.92;66.48;101380.53;5113404;28;20502;-72
2022/06/05 05:25:15;;;;;;;14.07;8.15;;;;;;;16.94;66.74;101381.34;5113618;28;20027;-72
2022/06/05 05:27:41;;;;;;;12.68;8.50;;;;;;;17.01;66.39;101385.44;5112753;28;20042;-71
2022/06/05 05:30:09;;;;;;;10.00;8.52;;;;;;;17.08;66.09;101381.63;5113820;28;20019;-71
2022/06/05 05:32:34;;;;;;;10.25;8.45;;;;;;;17.16;65.76;101375.16;5113315;28;20023;-71
2022/06/05 05:34:59;;;;;;;13.00;10.45;;;;;;;17.18;65.36;101375.97;5112735;28;20016;-72
2022/06/05 05:37:25;;;;;;;14.85;9.20;;;;;;;17.20;65.20;101380.25;5113526;28;20023;-71
2022/06/05 05:42:34;;;;;;;11.00;9.80;;;;;;;17.22;65.37;101375.75;5112465;28;20057;-72
2022/06/05 05:44:59;;;;;;;13.73;9.40;;;;;;;17.25;65.65;101378.25;5113663;28;20463;-72
2022/06/05 05:47:31;;;;;;;9.98;8.52;;;;;;;17.24;66.22;101367.81;5113485;28;20378;-71
2022/06/05 05:50:03;;;;;;;12.27;9.00;;;;;;;17.25;66.58;101365.09;5112627;28;20047;-71
2022/06/05 05:52:29;;;;;;;10.13;8.82;;;;;;;17.29;65.67;101371.94;5113859;28;20114;-71
2022/06/05 05:54:55;;;;;;;11.20;8.88;;;;;;;17.32;65.67;101368.31;5112406;28;20035;-72
2022/06/05 05:57:21;;;;;;;10.65;8.30;;;;;;;17.32;65.04;101368.31;5113089;28;20433;-71
2022/06/05 05:59:47;;;;;;;10.35;8.07;;;;;;;17.36;65.04;101361.97;5113016;28;20028;-72
2022/06/05 06:02:16;;;;;;;10.18;8.85;;;;;;;17.38;64.67;101354.88;5112462;28;20518;-71
2022/06/05 06:04:42;;;;;;;11.35;9.30;;;;;;;17.42;65.14;101350.31;5112843;28;20026;-72
2022/06/05 06:07:09;;;;;;;11.00;8.55;;;;;;;17.50;64.79;101345.59;5113134;28;20020;-72
2022/06/05 06:09:35;;;;;;;10.60;8.70;;;;;;;17.63;64.44;101340.63;5111877;28;20024;-71
2022/06/05 06:12:01;;;;;;;10.65;8.82;;;;;;;17.69;64.50;101332.41;5113301;28;20069;-72
2022/06/05 06:14:26;;;;;;;10.90;8.57;;;;;;;17.78;63.75;101324.97;5113292;28;20023;-71
2022/06/05 06:16:52;;;;;;;9.52;8.27;;;;;;;17.85;64.07;101322.91;5112034;28;20475;-72
2022/06/05 06:19:18;;;;;;;9.50;8.50;;;;;;;17.97;64.01;101321.50;5113088;28;20027;-72
2022/06/05 06:21:44;;;;;;;11.93;9.20;;;;;;;17.98;63.43;101313.53;5113011;28;20062;-71
2022/06/05 06:24:10;;;;;;;13.18;9.40;;;;;;;18.04;63.39;101312.34;5112507;28;20043;-71
2022/06/05 06:26:36;;;;;;;10.52;9.10;;;;;;;18.13;63.15;101313.72;5112866;28;20369;-72
2022/06/05 06:29:01;;;;;;;11.25;9.30;;;;;;;18.28;63.41;101297.16;5113054;28;20505;-72
2022/06/05 06:31:26;;;;;;;11.30;9.27;;;;;;;18.35;63.79;101301.19;5112611;28;20452;-71
2022/06/05 06:33:52;;;;;;;10.50;9.40;;;;;;;18.44;63.08;101300.75;5112634;28;20034;-72
2022/06/05 06:36:18;;;;;;;10.98;9.57;;;;;;;18.51;62.89;101289.88;5113178;28;20024;-71
2022/06/05 06:38:44;;;;;;;10.55;9.52;;;;;;;18.54;62.98;101290.59;5112094;28;20027;-72
2022/06/05 06:41:14;;;;;;;10.95;9.27;;;;;;;18.63;62.54;101282.19;5112901;28;20027;-72
2022/06/05 06:43:41;;;;;;;13.05;9.13;;;;;;;18.69;62.20;101281.03;5112724;28;20054;-72
2022/06/05 06:46:07;;;;;;;12.10;9.23;;;;;;;18.77;62.21;101275.41;5112118;28;20077;-71
2022/06/05 06:48:33;;;;;;;12.15;8.93;;;;;;;18.86;61.51;101270.50;5112471;28;20084;-72
2022/06/05 06:51:00;;;;;;;13.50;9.80;;;;;;;18.90;62.20;101263.25;5112612;28;20031;-71
2022/06/05 06:53:27;;;;;;;15.38;8.95;;;;;;;18.93;61.61;101264.00;5112717;28;20028;-71
2022/06/05 06:55:53;;;;;;;11.23;9.02;;;;;;;19.03;62.06;101279.34;5112373;28;20126;-72
2022/06/05 06:58:18;;;;;;;26.13;9.30;;;;;;;19.12;61.65;101281.50;5112032;28;20016;-71
2022/06/05 07:00:44;;;;;;;14.18;9.43;;;;;;;19.20;61.61;101278.50;5112353;28;20529;-72
2022/06/05 07:03:09;;;;;;;13.77;9.32;;;;;;;19.23;61.63;101279.19;5112956;28;20137;-72
2022/06/05 07:05:38;;;;;;;10.88;9.38;;;;;;;19.24;61.45;101275.59;5111691;28;20475;-72
2022/06/05 07:08:04;;;;;;;12.82;9.90;;;;;;;19.30;61.66;101275.28;5112724;28;20024;-72
2022/06/05 07:10:30;;;;;;;11.18;9.60;;;;;;;19.35;61.67;101262.66;5114876;28;20031;-71
2022/06/05 07:12:55;;;;;;;10.98;9.48;;;;;;;19.47;61.12;101266.44;5115560;28;20132;-72
2022/06/05 07:15:20;;;;;;;12.23;10.20;;;;;;;19.52;61.46;101268.81;5116174;28;20431;-72
2022/06/05 07:17:47;;;;;;;10.25;9.15;;;;;;;19.60;61.26;101250.75;5116018;28;20038;-72
2022/06/05 07:20:12;;;;;;;10.98;9.88;;;;;;;19.72;60.59;101258.06;5115491;28;20032;-71
2022/06/05 07:22:38;;;;;;;11.95;10.05;;;;;;;19.78;60.54;101249.78;5115978;28;20111;-71
2022/06/05 07:25:05;;;;;;;12.77;9.70;;;;;;;19.92;59.86;101249.00;5116270;28;20340;-72
2022/06/05 07:27:31;;;;;;;11.48;10.07;;;;;;;19.97;59.83;101248.75;5114849;28;20031;-72
2022/06/05 07:29:56;;;;;;;11.80;9.13;;;;;;;19.98;59.83;101251.31;5115871;28;20030;-72
2022/06/05 07:32:22;;;;;;;10.95;9.85;;;;;;;20.02;60.21;101244.91;5115934;28;20463;-72
2022/06/05 07:34:48;;;;;;;11.98;9.52;;;;;;;20.12;60.04;101237.28;5114955;28;20081;-72
2022/06/05 07:37:15;;;;;;;11.70;9.32;;;;;;;20.14;59.54;101247.78;5115752;28;20494;-72
2022/06/05 07:39:41;;;;;;;11.85;10.38;;;;;;;20.06;59.57;101238.50;5115591;28;20028;-72
2022/06/05 07:42:07;;;;;;;12.85;10.32;;;;;;;20.11;59.99;101235.59;5114913;28;20099;-72
2022/06/05 07:44:35;;;;;;;11.18;9.57;;;;;;;20.15;60.36;101237.13;5115424;28;20066;-72
2022/06/05 07:47:07;;;;;;;12.27;9.77;;;;;;;20.21;61.00;101225.31;5115830;27;20103;-72
2022/06/05 07:49:34;;;;;;;11.27;10.13;;;;;;;20.26;60.51;101226.75;5114634;27;20170;-72
2022/06/05 07:54:44;;;;;;;15.02;10.00;;;;;;;20.39;59.97;101224.25;5114665;28;20027;-72
2022/06/05 07:57:12;;;;;;;10.43;9.35;;;;;;;20.53;59.70;101218.16;5115611;28;20023;-72
2022/06/05 07:59:42;;;;;;;13.23;10.20;;;;;;;20.59;60.26;101204.56;5115305;28;20027;-72
2022/06/05 08:02:12;;;;;;;17.05;10.73;;;;;;;20.64;59.55;101212.25;5114562;28;20473;-72
2022/06/05 08:04:39;;;;;;;11.18;10.07;;;;;;;20.63;59.96;101206.06;5115002;28;20020;-72
2022/06/05 08:07:06;;;;;;;12.23;10.70;;;;;;;20.57;59.37;101204.66;5115241;28;20156;-72
2022/06/05 08:09:33;;;;;;;12.40;10.75;;;;;;;20.53;60.12;101200.47;5113992;28;20036;-71
2022/06/05 08:12:00;;;;;;;16.55;10.60;;;;;;;20.59;60.23;101199.25;5115058;28;20468;-72
2022/06/05 08:14:26;;;;;;;12.55;10.82;;;;;;;20.64;60.24;101194.56;5115319;28;20030;-72
2022/06/05 08:16:51;;;;;;;12.48;11.20;;;;;;;20.78;61.04;101191.91;5114116;28;20024;-72
2022/06/05 08:19:20;;;;;;;12.65;10.82;;;;;;;20.98;59.90;101192.50;5115153;28;20024;-72
2022/06/05 08:21:47;;;;;;;11.65;10.52;;;;;;;21.23;60.70;101195.34;5114484;28;20031;-72
2022/06/05 08:24:12;;;;;;;12.38;10.90;;;;;;;21.43;59.52;101190.59;5114106;28;20031;-72
2022/06/05 08:26:38;;;;;;;12.25;10.65;;;;;;;21.48;60.25;101183.19;5114922;28;20498;-72
2022/06/05 08:29:04;;;;;;;12.15;10.57;;;;;;;21.51;59.12;101183.84;5114968;27;20470;-72
2022/06/05 08:31:29;;;;;;;11.73;10.43;;;;;;;21.55;59.70;101187.19;5114065;28;20080;-72
2022/06/05 08:33:57;;;;;;;13.45;11.95;;;;;;;21.76;57.97;101190.25;5114564;28;20016;-72
2022/06/05 08:36:22;;;;;;;13.52;11.30;;;;;;;22.08;57.95;101187.28;5114770;28;20098;-72
2022/06/05 08:41:58;;;;;;;12.73;11.43;;;;;;;22.54;57.38;101186.88;5114684;28;20437;-72
2022/06/05 08:44:40;;;;;;;13.23;11.75;;;;;;;22.74;55.79;101190.81;5113689;28;20086;-72
2022/06/05 08:47:20;;;;;;;14.10;12.65;;;;;;;22.74;55.74;101194.31;5114386;28;20481;-72
2022/06/05 08:49:59;;;;;;;12.40;11.20;;;;;;;22.88;55.94;101191.56;5114264;28;20027;-72
2022/06/05 08:52:49;;;;;;;12.88;11.55;;;;;;;23.01;55.57;101198.72;5113687;28;20034;-72
2022/06/05 08:55:24;;;;;;;13.10;11.73;;;;;;;22.87;54.46;101197.00;5114408;28;20403;-72
2022/06/05 08:57:54;;;;;;;12.27;11.07;;;;;;;22.80;55.60;101201.03;5113055;28;20551;-72
2022/06/05 09:00:28;;;;;;;13.65;11.88;;;;;;;22.76;55.08;101197.75;5114405;28;20031;-72
2022/06/05 09:03:02;;;;;;;12.80;11.70;;;;;;;22.68;55.88;101197.41;5113899;28;20030;-72
2022/06/05 09:05:37;;;;;;;12.95;11.70;;;;;;;22.50;56.15;101210.16;5113307;28;20502;-72
2022/06/05 09:08:08;;;;;;;14.90;12.52;;;;;;;22.27;55.98;101202.84;5113983;28;20043;-72
2022/06/05 09:10:42;;;;;;;12.85;11.65;;;;;;;22.14;57.35;101198.34;5113960;28;20036;-72
2022/06/05 09:13:30;;;;;;;12.05;10.82;;;;;;;22.20;58.69;101200.63;5113166;28;20069;-72
2022/06/05 09:16:00;;;;;;;13.90;12.35;;;;;;;22.22;57.64;101197.88;5113970;28;20462;-72
2022/06/05 09:18:35;;;;;;;13.40;12.00;;;;;;;22.22;57.52;101191.72;5113802;28;20069;-72
2022/06/05 09:21:06;;;;;;;12.75;11.55;;;;;;;22.18;58.00;101196.38;5113251;28;20110;-72
2022/06/05 09:23:40;;;;;;;14.00;12.18;;;;;;;22.06;58.87;101194.50;5113607;28;20118;-72
2022/06/05 09:26:39;;;;;;;13.70;12.30;;;;;;;22.07;58.68;101191.75;5113091;28;20030;-72
2022/06/05 09:29:25;;;;;;;12.50;11.27;;;;;;;21.86;59.14;101190.50;5113677;28;20102;-72
2022/06/05 09:32:18;;;;;;;14.38;11.10;;;;;;;21.71;59.61;101190.56;5113006;28;20032;-72
2022/06/05 09:34:50;;;;;;;12.10;10.70;;;;;;;21.54;60.37;101184.63;5112440;28;20472;-72
2022/06/05 09:37:19;;;;;;;13.68;12.38;;;;;;;21.50;60.01;101186.63;5113617;28;20383;-72
2022/06/05 09:39:56;;;;;;;13.93;11.57;;;;;;;21.46;60.61;101185.13;5113390;28;20054;-72
2022/06/05 09:42:41;;;;;;;13.50;11.63;;;;;;;21.43;60.47;101182.66;5113644;28;20078;-72
2022/06/05 09:45:22;;;;;;;17.15;12.32;;;;;;;21.33;62.00;101184.16;5113533;28;20020;-72
2022/06/05 09:47:59;;;;;;;12.57;11.38;;;;;;;21.25;62.13;101176.66;5112403;28;20024;-72
2022/06/05 09:50:28;;;;;;;12.70;11.50;;;;;;;21.15;62.91;101168.44;5113375;28;20401;-72
2022/06/05 09:52:53;;;;;;;13.05;11.77;;;;;;;21.07;63.31;101162.78;5113010;28;20425;-72
2022/06/05 09:55:36;;;;;;;13.50;12.05;;;;;;;21.10;62.86;101153.78;5112356;28;20047;-72
2022/06/05 09:58:27;;;;;;;14.63;11.80;;;;;;;21.15;62.56;101155.19;5113310;28;20035;-72
2022/06/05 10:00:58;;;;;;;13.90;12.57;;;;;;;21.09;63.38;101142.34;5112952;28;20265;-72
2022/06/05 10:03:35;;;;;;;13.13;11.88;;;;;;;20.91;65.32;101131.06;5113385;28;20028;-72
2022/06/05 10:06:15;;;;;;;14.65;12.55;;;;;;;20.90;65.35;101139.97;5113168;28;20471;-72
2022/06/05 10:08:44;;;;;;;15.05;12.48;;;;;;;20.91;67.17;101136.38;5112049;28;20028;-72
2022/06/05 10:11:23;;;;;;;14.70;12.82;;;;;;;21.02;66.60;101139.19;5113299;28;20015;-72
2022/06/05 10:13:59;;;;;;;14.93;13.40;;;;;;;21.01;68.20;101140.16;5112953;28;20027;-72
2022/06/05 10:16:35;;;;;;;13.93;12.50;;;;;;;20.95;68.29;101132.56;5112337;28;20063;-72
2022/06/05 10:19:26;;;;;;;14.77;13.27;;;;;;;21.00;68.80;101135.81;5113275;28;20027;-72
2022/06/05 10:22:26;;;;;;;14.63;13.23;;;;;;;21.07;68.11;101138.91;5113041;28;20031;-72
2022/06/05 10:25:29;;;;;;;15.82;14.15;;;;;;;21.04;69.27;101141.75;5086322;28;20468;-72
2022/06/05 10:28:02;;;;;;;14.90;13.50;;;;;;;20.91;71.41;101139.03;5082862;28;20032;-72
2022/06/05 10:30:33;;;;;;;15.45;13.85;;;;;;;20.86;72.77;101129.66;5112261;28;20047;-72
2022/06/05 10:33:24;;;;;;;16.38;14.40;;;;;;;20.85;70.94;101136.75;5113093;28;20046;-72
2022/06/05 10:36:06;;;;;;;15.70;14.23;;;;;;;20.70;72.64;101130.59;5112815;28;20486;-72
2022/06/05 10:39:04;;;;;;;16.27;14.55;;;;;;;20.44;71.82;101129.50;5112737;28;20032;-72
2022/06/05 10:41:30;;;;;;;16.00;14.32;;;;;;;20.26;74.47;101128.78;5113026;28;20400;-72
2022/06/05 10:44:10;;;;;;;16.58;14.90;;;;;;;20.13;73.61;101129.63;5113589;28;20562;-72
2022/06/05 10:46:39;;;;;;;16.73;15.10;;;;;;;19.89;76.79;101127.47;5116691;28;20023;-72
2022/06/05 10:49:19;;;;;;;18.08;15.93;;;;;;;19.61;77.81;101133.44;5116910;28;20032;-72
2022/06/05 10:52:15;;;;;;;16.20;14.50;;;;;;;19.38;78.53;101137.38;5115728;28;20047;-72
2022/06/05 10:54:54;;;;;;;17.60;15.90;;;;;;;19.22;81.14;101129.44;5116155;28;20508;-73
2022/06/05 10:57:27;;;;;;;18.58;16.70;;;;;;;19.05;83.39;101132.16;5115771;28;20182;-72
2022/06/05 11:00:02;;;;;;;19.37;16.43;;;;;;;19.01;84.49;101130.63;5116376;28;20027;-72
2022/06/05 11:02:52;;;;;;;18.55;16.75;;;;;;;18.95;85.15;101137.09;5116510;27;20030;-72
2022/06/05 11:05:32;;;;;;;22.25;18.20;;;;;;;18.86;86.08;101138.41;5115817;28;20031;-78
2022/06/05 11:08:03;;;;;;;25.90;20.70;;;;;;;18.58;94.12;101132.88;5116359;28;20112;-79
2022/06/05 11:13:46;;;;;;;34.15;25.38;;;;;;;18.15;97.57;101138.56;5115879;28;20081;-74
2022/06/05 11:16:44;;;;;;;31.02;25.35;;;;;;;18.13;100.00;101131.66;5116383;28;20034;-74
2022/06/05 11:19:27;;;;;;;35.33;26.85;;;;;;;18.08;100.00;101126.59;5070130;27;20036;-74
2022/06/05 11:21:54;;;;;;;;;;;;;;;18.09;92.27;101132.75;5116350;28;20445;-76
2022/06/05 11:24:30;;;;;;;30.80;26.27;;;;;;;18.07;100.00;101116.13;5116211;28;19916;-75
2022/06/05 11:27:10;;;;;;;32.60;28.88;;;;;;;18.08;100.00;101113.41;5115330;28;20031;-75
2022/06/05 11:29:55;;;;;;;31.50;28.20;;;;;;;18.01;100.00;101126.03;5115647;28;20106;-75
2022/06/05 11:32:33;;;;;;;35.00;28.95;;;;;;;18.01;100.00;101114.66;5115552;28;20072;-75
2022/06/05 11:35:37;;;;;;;40.03;28.83;;;;;;;17.93;100.00;101104.50;5116392;28;20043;-75
2022/06/05 11:38:09;;;;;;;39.70;32.92;;;;;;;17.97;100.00;101098.13;5084578;28;20390;-75
2022/06/05 11:40:42;;;;;;;44.58;35.55;;;;;;;18.12;100.00;101104.44;5114873;28;20019;-75
2022/06/05 11:43:26;;;;;;;46.38;35.55;;;;;;;18.21;100.00;101096.06;5115910;28;20148;-75
2022/06/05 11:45:58;;;;;;;46.70;35.97;;;;;;;18.24;100.00;101095.00;5115474;28;20443;-75
2022/06/05 11:48:37;;;;;;;36.80;32.90;;;;;;;18.19;100.00;101100.53;5114626;28;20088;-75
2022/06/05 11:51:13;;;;;;;38.35;32.28;;;;;;;18.09;100.00;101098.47;5115762;28;20040;-75